首页
METAR-TAF:

METAR-TAF

机场 :

约恩苏机场

约恩苏, 芬兰

纬度: 62-40N, 经度: 029-38E, 海拔: 119米

当前天气观测

该预报发布于24分钟前的23:50 UTC
风速1节,风向西北
温度 9°C
湿度 87%
气压 1027 hPa
能见度10公里或以上
1500米以下无云,无积雨云

METAR: EFJO 242350Z AUTO 32001KT CAVOK 09/07 Q1027

时间: 03:14 (00:14 UTC)

预报

该预报发布于41分钟前的23:33 UTC
预报有效从25日的 00点(UTC)到 25日的 09点(UTC)
风速2节,风向西
能见度10公里或以上
1500米以下无云,无积雨云
成为
从 25日的 06点(UTC)到 25日的 08点(UTC)
风速10节,风向西

TAF: EFJO 242333Z 2500/2509 27002KT CAVOK BECMG 2506/2508 27010KT

超过4000个机场的气象观测和天气预报(METAR&TAF报告)。

可查询的气象台以黄色和红色小点在地图上表示。

将鼠标移到小点上方,可查看气象台名称。

然后点击查看天气观测和预报。

如需切换地图:点击带黑十字的绿色按钮放大地图;点击带横线的绿色按钮缩小地图;或者点击绿色箭头查看邻近地区的地图。


METAR-TAF: